Time;durP1;ratioP1;P1;durP2;ratioP2;P2;SDS_P1;SDS_P2;PMS_P1;PMS_P2;Temp;Humidity;BMP_temperature;BMP_pressure;BME280_temperature;BME280_humidity;BME280_pressure;Samples;Min_cycle;Max_cycle;Signal;HPM_P1;HPM_P2
2023/08/30 00:00:07;;;;;;;5.35;2.45;;;;;;;15.54;68.87;98104.94;4985231;28;20117;-82
2023/08/30 00:02:33;;;;;;;2.97;2.38;;;;;;;15.79;68.17;98112.53;4988389;28;20029;-82
2023/08/30 00:05:03;;;;;;;6.15;2.50;;;;;;;15.51;69.14;98100.16;4974183;28;20397;-82
2023/08/30 00:07:29;;;;;;;14.27;3.00;;;;;;;15.50;69.04;98103.97;4988891;28;20405;-81
2023/08/30 00:10:00;;;;;;;3.50;2.53;;;;;;;15.32;69.41;98096.72;5002372;28;20042;-81
2023/08/30 00:12:25;;;;;;;3.22;2.22;;;;;;;15.44;69.13;98110.53;4970260;28;21479;-82
2023/08/30 00:14:51;;;;;;;3.22;2.53;;;;;;;15.30;69.12;98090.84;4969868;28;20026;-82
2023/08/30 00:17:17;;;;;;;3.75;2.80;;;;;;;15.35;69.39;98128.41;5006362;28;20036;-82
2023/08/30 00:19:42;;;;;;;4.55;2.80;;;;;;;15.25;69.56;98115.94;5005103;28;20034;-81
2023/08/30 00:22:09;;;;;;;5.63;2.63;;;;;;;15.41;68.89;98119.97;4989714;28;20041;-82
2023/08/30 00:24:35;;;;;;;4.03;2.75;;;;;;;15.44;68.55;98121.28;4987767;28;20030;-82
2023/08/30 00:27:02;;;;;;;3.95;2.88;;;;;;;15.49;69.03;98113.09;4990565;28;20041;-82
2023/08/30 00:29:28;;;;;;;3.05;2.50;;;;;;;15.45;68.62;98120.97;4994282;28;20097;-82
2023/08/30 00:31:53;;;;;;;5.45;2.78;;;;;;;15.35;69.29;98139.16;5006191;28;20049;-82
2023/08/30 00:34:19;;;;;;;3.42;2.50;;;;;;;14.98;69.92;98108.59;5009659;28;20072;-83
2023/08/30 00:36:44;;;;;;;4.38;2.53;;;;;;;15.21;70.00;98132.94;5004130;28;20133;-82
2023/08/30 00:39:09;;;;;;;5.45;3.13;;;;;;;15.10;69.70;98132.34;4987990;28;20064;-83
2023/08/30 00:41:35;;;;;;;8.32;3.45;;;;;;;15.29;69.38;98129.59;4976897;28;20109;-82
2023/08/30 00:44:01;;;;;;;3.25;2.88;;;;;;;15.41;68.67;98136.09;4989933;28;20042;-82
2023/08/30 00:46:27;;;;;;;3.13;2.40;;;;;;;15.18;69.85;98130.88;5010373;28;20068;-82
2023/08/30 00:48:53;;;;;;;3.45;2.40;;;;;;;15.23;69.33;98134.25;5008069;28;20030;-82
2023/08/30 00:51:18;;;;;;;3.15;2.70;;;;;;;15.31;69.21;98113.97;4985377;28;20034;-83
2023/08/30 00:53:44;;;;;;;2.95;2.75;;;;;;;15.06;69.38;98103.66;4956250;28;21734;-82
2023/08/30 00:56:10;;;;;;;7.18;2.53;;;;;;;15.31;69.38;98122.03;4978205;28;20490;-82
2023/08/30 00:58:38;;;;;;;4.30;2.70;;;;;;;15.31;69.17;98122.03;4987067;28;20030;-82
2023/08/30 01:01:07;;;;;;;2.85;2.53;;;;;;;15.19;69.56;98135.13;5005822;28;20025;-82
2023/08/30 01:03:32;;;;;;;3.25;2.50;;;;;;;15.29;69.05;98129.59;5001835;28;20034;-82
2023/08/30 01:05:57;;;;;;;3.13;2.72;;;;;;;15.27;69.63;98143.31;4984997;28;20038;-83
2023/08/30 01:08:23;;;;;;;4.72;3.33;;;;;;;15.29;69.17;98121.53;4968928;28;20368;-82
2023/08/30 01:11:03;;;;;;;2.85;2.40;;;;;;;15.20;69.60;98131.38;5003293;28;20077;-82
2023/08/30 01:13:33;;;;;;;4.57;2.67;;;;;;;15.15;69.68;98128.75;5000237;28;20026;-82
2023/08/30 01:16:00;;;;;;;9.10;4.20;;;;;;;15.08;69.44;98096.88;4976222;28;21235;-82
2023/08/30 01:18:29;;;;;;;4.82;2.88;;;;;;;14.92;70.09;98088.28;5001006;28;20025;-82
2023/08/30 01:20:55;;;;;;;3.33;2.95;;;;;;;15.06;69.43;98099.06;4969105;28;20044;-82
2023/08/30 01:23:24;;;;;;;8.82;3.40;;;;;;;14.66;70.58;98113.97;4968459;28;20026;-83
2023/08/30 01:26:03;;;;;;;4.00;2.88;;;;;;;14.34;71.67;98097.81;4988495;28;20482;-82
2023/08/30 01:28:31;;;;;;;3.80;3.35;;;;;;;14.47;71.44;98105.13;4998539;28;20029;-82
2023/08/30 01:30:58;;;;;;;3.25;2.95;;;;;;;14.57;71.17;98090.78;4982726;28;20058;-82
2023/08/30 01:33:27;;;;;;;4.55;3.28;;;;;;;15.05;69.56;98092.09;5002890;28;20126;-83
2023/08/30 01:35:55;;;;;;;5.07;3.13;;;;;;;14.81;70.04;98097.59;4970681;28;20536;-83
2023/08/30 01:38:21;;;;;;;4.00;3.00;;;;;;;14.73;69.84;98092.09;4970670;28;20049;-82
2023/08/30 01:40:48;;;;;;;5.80;3.00;;;;;;;14.62;70.20;98091.47;4985408;28;20034;-82
2023/08/30 01:43:14;;;;;;;9.82;4.90;;;;;;;13.83;72.43;98100.34;5002887;28;20117;-82
2023/08/30 01:45:42;;;;;;;3.20;2.85;;;;;;;14.76;70.18;98108.47;4953648;28;20025;-82
2023/08/30 01:48:11;;;;;;;5.30;3.05;;;;;;;14.50;70.38;98103.75;5004674;28;20064;-82
2023/08/30 01:50:39;;;;;;;6.88;2.97;;;;;;;14.71;70.36;98097.78;4988505;28;20084;-82
2023/08/30 01:53:05;;;;;;;2.97;2.78;;;;;;;14.62;69.95;98104.09;4985851;28;20033;-82
2023/08/30 01:55:32;;;;;;;7.55;3.22;;;;;;;14.85;70.18;98116.66;4988076;28;20481;-82
2023/08/30 01:57:58;;;;;;;5.70;3.60;;;;;;;14.26;70.66;98093.84;5001161;28;20076;-82
2023/08/30 02:00:23;;;;;;;6.47;3.10;;;;;;;14.72;70.27;98098.59;4982570;28;20026;-82
2023/08/30 02:02:48;;;;;;;4.47;3.53;;;;;;;14.72;70.14;98099.38;4969068;28;20124;-82
2023/08/30 02:05:14;;;;;;;7.03;3.20;;;;;;;14.68;69.98;98100.25;4974828;28;20057;-82
2023/08/30 02:08:09;;;;;;;5.60;3.10;;;;;;;14.86;69.37;98107.47;4983784;28;20041;-82
2023/08/30 02:10:40;;;;;;;3.17;2.88;;;;;;;14.74;69.60;98086.44;4982240;28;20045;-82
2023/08/30 02:13:06;;;;;;;4.47;2.63;;;;;;;14.65;69.62;98096.28;5003516;28;20026;-82
2023/08/30 02:15:34;;;;;;;3.53;3.22;;;;;;;14.48;70.17;98087.94;4997682;28;20064;-83
2023/08/30 02:17:59;;;;;;;3.30;2.70;;;;;;;14.55;69.47;98099.09;4971017;28;22356;-82
2023/08/30 02:20:25;;;;;;;4.25;3.50;;;;;;;14.39;70.15;98097.75;5008479;28;20100;-83
2023/08/30 02:22:50;;;;;;;2.83;2.63;;;;;;;14.46;70.11;98094.69;5007522;28;20034;-82
2023/08/30 02:25:16;;;;;;;4.40;3.10;;;;;;;14.49;69.86;98083.34;4975006;28;20108;-82
2023/08/30 02:27:41;;;;;;;3.05;2.40;;;;;;;14.52;69.47;98078.22;4973834;28;20521;-82
2023/08/30 02:30:07;;;;;;;4.20;3.33;;;;;;;14.66;69.51;98094.38;4977463;28;20496;-82
2023/08/30 02:32:33;;;;;;;6.20;3.15;;;;;;;14.52;69.65;98096.22;4990475;28;20037;-82
2023/08/30 02:34:58;;;;;;;3.38;2.45;;;;;;;14.54;69.83;98091.34;4973288;28;20474;-82
2023/08/30 02:37:24;;;;;;;5.00;2.65;;;;;;;14.60;69.67;98099.03;4992920;28;20029;-82
2023/08/30 02:39:49;;;;;;;5.97;2.63;;;;;;;14.48;69.93;98093.28;4974120;28;20478;-82
2023/08/30 02:42:15;;;;;;;2.80;2.60;;;;;;;14.59;68.93;98089.38;4959445;28;20030;-82
2023/08/30 02:44:40;;;;;;;7.53;3.10;;;;;;;14.51;69.58;98092.72;4989417;28;20059;-82
2023/08/30 02:47:05;;;;;;;4.13;2.97;;;;;;;14.44;69.44;98073.50;4977299;28;20036;-82
2023/08/30 02:49:31;;;;;;;5.32;2.70;;;;;;;14.35;69.86;98085.19;4976654;28;20107;-82
2023/08/30 02:51:56;;;;;;;2.95;2.45;;;;;;;14.26;70.28;98085.81;4972423;28;20424;-82
2023/08/30 02:54:22;;;;;;;4.07;2.67;;;;;;;14.24;69.97;98089.88;4980285;28;20034;-82
2023/08/30 02:56:48;;;;;;;3.13;2.50;;;;;;;14.34;69.47;98087.06;5011849;28;20030;-82
2023/08/30 02:59:13;;;;;;;6.78;3.60;;;;;;;13.39;71.17;98081.81;4976656;28;20049;-81
2023/08/30 03:01:38;;;;;;;5.55;2.97;;;;;;;13.80;71.56;98084.03;4977011;28;20037;-82
2023/08/30 03:04:08;;;;;;;2.95;2.28;;;;;;;14.26;69.63;98093.84;4958493;28;20033;-82
2023/08/30 03:06:34;;;;;;;2.85;2.47;;;;;;;14.40;69.54;98093.16;4990752;28;20053;-81
2023/08/30 03:08:59;;;;;;;5.97;2.90;;;;;;;14.32;69.42;98100.00;4987683;28;20453;-82
2023/08/30 03:11:25;;;;;;;2.58;2.38;;;;;;;14.29;69.58;98089.81;4991558;28;20030;-81
2023/08/30 03:13:53;;;;;;;2.78;2.58;;;;;;;14.28;69.27;98077.47;4973700;28;20034;-82
2023/08/30 03:16:18;;;;;;;2.83;2.58;;;;;;;14.33;69.25;98090.84;5003250;28;20030;-82
2023/08/30 03:18:44;;;;;;;3.13;2.88;;;;;;;14.25;69.58;98078.06;4960509;28;20038;-81
2023/08/30 03:21:10;;;;;;;5.90;2.92;;;;;;;14.24;69.51;98096.03;4985533;28;20038;-82
2023/08/30 03:23:36;;;;;;;4.22;3.55;;;;;;;14.21;69.57;98069.78;4984885;28;20108;-82
2023/08/30 03:26:09;;;;;;;5.03;3.10;;;;;;;14.15;69.43;98068.25;4991119;28;20021;-82
2023/08/30 03:28:35;;;;;;;5.25;3.50;;;;;;;14.28;69.35;98090.91;4989811;28;20033;-82
2023/08/30 03:31:00;;;;;;;5.20;3.47;;;;;;;14.15;70.14;98081.66;4989802;28;20486;-82
2023/08/30 03:33:25;;;;;;;4.90;3.30;;;;;;;14.08;69.86;98056.28;4956996;28;20068;-82
2023/08/30 03:35:51;;;;;;;5.40;3.15;;;;;;;14.17;69.71;98070.66;4988154;28;20041;-82
2023/08/30 03:38:16;;;;;;;4.43;3.72;;;;;;;14.08;69.64;98062.47;4975031;28;20112;-82
2023/08/30 03:40:41;;;;;;;4.70;3.42;;;;;;;14.15;69.40;98073.63;4989288;28;20033;-82
2023/08/30 03:43:07;;;;;;;5.20;3.47;;;;;;;14.17;69.78;98071.47;4992671;28;20455;-82
2023/08/30 03:45:38;;;;;;;5.90;3.63;;;;;;;14.26;69.97;98069.69;4991947;28;20025;-82
2023/08/30 03:48:04;;;;;;;4.45;3.53;;;;;;;14.24;69.68;98071.09;4977691;28;20034;-81
2023/08/30 03:50:30;;;;;;;4.28;3.88;;;;;;;14.13;70.00;98061.59;5004137;28;20092;-82
2023/08/30 03:52:55;;;;;;;4.88;3.85;;;;;;;14.25;69.53;98064.63;5002790;28;20125;-82
2023/08/30 03:55:22;;;;;;;5.05;4.00;;;;;;;14.15;69.29;98062.88;4981339;28;20069;-82
2023/08/30 03:57:48;;;;;;;4.78;3.67;;;;;;;14.12;69.74;98052.75;4971404;28;20029;-82
2023/08/30 04:00:13;;;;;;;7.43;4.43;;;;;;;14.12;69.88;98047.38;4991313;28;20072;-82
2023/08/30 04:02:41;;;;;;;4.95;4.10;;;;;;;13.90;70.12;98043.66;4969038;28;20077;-82
2023/08/30 04:05:09;;;;;;;11.85;6.28;;;;;;;13.57;70.95;98060.72;4974952;28;20045;-82
2023/08/30 04:07:36;;;;;;;11.27;6.70;;;;;;;12.64;74.54;98048.53;4979684;28;20041;-82
2023/08/30 04:10:05;;;;;;;7.07;6.20;;;;;;;12.07;76.64;98052.97;4994418;28;20763;-82
2023/08/30 04:12:31;;;;;;;9.73;6.43;;;;;;;11.95;76.86;98067.47;4978813;28;20117;-81
2023/08/30 04:14:56;;;;;;;7.05;3.88;;;;;;;12.67;75.10;98045.28;5009908;28;20045;-82
2023/08/30 04:17:21;;;;;;;5.53;4.85;;;;;;;13.23;73.35;98056.28;4991429;28;20038;-81
2023/08/30 04:19:47;;;;;;;7.35;4.10;;;;;;;12.95;73.92;98054.41;4976312;28;20038;-82
2023/08/30 04:22:12;;;;;;;7.13;6.43;;;;;;;12.35;74.92;98042.34;4988126;28;20026;-83
2023/08/30 04:24:38;;;;;;;6.03;4.95;;;;;;;12.01;76.52;98061.00;4973826;28;20481;-83
2023/08/30 04:27:03;;;;;;;4.70;4.30;;;;;;;12.91;74.35;98048.00;4976344;28;20128;-84
2023/08/30 04:29:29;;;;;;;7.97;4.55;;;;;;;13.22;72.62;98043.97;4979303;28;20026;-83
2023/08/30 04:31:54;;;;;;;4.45;3.92;;;;;;;13.08;73.46;98036.88;4988501;28;20038;-82
2023/08/30 04:34:19;;;;;;;8.60;3.80;;;;;;;13.55;72.08;98061.00;4987791;28;20402;-83
2023/08/30 04:36:45;;;;;;;5.25;4.10;;;;;;;13.78;71.05;98052.13;4975307;28;20387;-83
2023/08/30 04:39:10;;;;;;;5.35;4.32;;;;;;;14.06;70.57;98058.47;5000133;28;20438;-83
2023/08/30 04:41:36;;;;;;;6.20;4.35;;;;;;;13.73;71.14;98057.56;4996006;28;20157;-83
2023/08/30 04:44:01;;;;;;;6.45;3.97;;;;;;;13.98;70.68;98061.78;4978686;28;20033;-82
2023/08/30 04:46:26;;;;;;;5.07;4.13;;;;;;;13.98;70.33;98043.00;4995452;28;20460;-84
2023/08/30 04:48:52;;;;;;;7.70;5.10;;;;;;;13.75;71.84;98059.97;4984859;28;20030;-82
2023/08/30 04:51:17;;;;;;;8.60;5.03;;;;;;;13.52;72.38;98051.66;4984852;28;20037;-82
2023/08/30 04:53:42;;;;;;;4.88;4.38;;;;;;;13.45;72.09;98015.56;4996535;28;20034;-82
2023/08/30 04:56:14;;;;;;;5.03;4.38;;;;;;;13.13;72.24;97989.41;4989807;28;20040;-83
2023/08/30 04:58:40;;;;;;;5.75;4.75;;;;;;;13.02;72.63;97973.72;5003196;28;20156;-83
2023/08/30 05:01:06;;;;;;;4.38;3.97;;;;;;;13.31;71.51;97980.59;5005012;28;20082;-83
2023/08/30 05:03:33;;;;;;;6.20;4.63;;;;;;;13.34;71.66;97976.56;5010146;28;20018;-83
2023/08/30 05:05:58;;;;;;;7.10;4.82;;;;;;;13.47;72.08;97987.38;5000136;28;20038;-82
2023/08/30 05:08:24;;;;;;;6.70;4.80;;;;;;;13.92;72.25;98060.25;5015591;28;20041;-83
2023/08/30 05:10:49;;;;;;;5.63;4.90;;;;;;;13.62;72.89;98042.69;4981733;28;20038;-84
2023/08/30 05:13:16;;;;;;;5.93;4.85;;;;;;;13.68;74.00;98060.31;4977589;28;20084;-83
2023/08/30 05:15:41;;;;;;;6.97;4.68;;;;;;;13.56;74.07;98037.69;4990031;28;20049;-82
2023/08/30 05:18:07;;;;;;;6.97;5.97;;;;;;;13.58;74.77;98040.88;4959828;28;20029;-83
2023/08/30 05:20:35;;;;;;;9.05;6.68;;;;;;;13.59;75.80;98055.84;4973706;28;20037;-82
2023/08/30 05:23:00;;;;;;;12.25;6.18;;;;;;;13.56;75.78;98048.41;4996434;28;20038;-83
2023/08/30 05:25:26;;;;;;;7.60;6.05;;;;;;;13.53;76.16;98039.84;4972332;28;20057;-82
2023/08/30 05:27:51;;;;;;;8.63;5.95;;;;;;;13.69;75.97;98047.69;4996158;28;20030;-82
2023/08/30 05:30:17;;;;;;;9.43;4.75;;;;;;;13.84;75.62;98055.56;4963065;28;20041;-82
2023/08/30 05:32:42;;;;;;;6.40;5.53;;;;;;;13.86;75.07;98053.38;5008078;28;20029;-82
2023/08/30 05:35:07;;;;;;;8.20;6.03;;;;;;;13.89;75.60;98058.94;4979737;28;20037;-82
2023/08/30 05:37:33;;;;;;;8.32;6.70;;;;;;;13.67;76.21;98039.16;4980660;28;20033;-83
2023/08/30 05:39:58;;;;;;;9.73;5.97;;;;;;;13.76;76.36;98042.78;4993668;28;20042;-82
2023/08/30 05:42:24;;;;;;;7.78;6.97;;;;;;;13.81;76.80;98048.88;4978749;28;20500;-82
2023/08/30 05:44:49;;;;;;;6.88;6.15;;;;;;;13.83;76.60;98051.25;4965228;28;20038;-83
2023/08/30 05:47:16;;;;;;;7.18;6.28;;;;;;;13.80;76.70;98055.34;5010136;28;20062;-83
2023/08/30 05:49:41;;;;;;;9.55;6.32;;;;;;;13.77;75.92;98042.50;4994363;28;20064;-81
2023/08/30 05:52:07;;;;;;;8.32;6.68;;;;;;;13.88;76.56;98043.16;4997354;28;20112;-82
2023/08/30 05:54:33;;;;;;;6.03;5.18;;;;;;;13.99;76.02;98042.72;4976685;28;20029;-81
2023/08/30 05:56:59;;;;;;;6.97;6.28;;;;;;;13.95;76.06;98035.56;4971217;28;20045;-82
2023/08/30 05:59:24;;;;;;;6.72;6.03;;;;;;;13.99;76.20;98036.56;4989410;28;20041;-82
2023/08/30 06:01:50;;;;;;;5.60;5.07;;;;;;;13.91;75.88;98018.44;4993513;28;20168;-82
2023/08/30 06:04:15;;;;;;;7.45;5.95;;;;;;;14.00;76.12;98041.63;5012754;28;20029;-82
2023/08/30 06:06:40;;;;;;;7.47;5.85;;;;;;;14.04;76.18;98037.28;4979229;28;20025;-82
2023/08/30 06:09:06;;;;;;;8.45;5.15;;;;;;;14.03;75.92;98034.88;4993602;28;20087;-82
2023/08/30 06:11:32;;;;;;;6.47;5.35;;;;;;;14.08;76.09;98032.16;4992087;28;20046;-82
2023/08/30 06:13:59;;;;;;;8.43;5.40;;;;;;;14.17;76.11;98049.19;4949534;28;20518;-82
2023/08/30 06:16:24;;;;;;;6.10;5.25;;;;;;;14.20;75.81;98049.41;4990597;28;20184;-82
2023/08/30 06:18:50;;;;;;;7.68;5.63;;;;;;;14.14;75.97;98039.03;4994294;28;20968;-82
2023/08/30 06:21:15;;;;;;;6.65;5.45;;;;;;;14.23;75.52;98048.03;4993075;28;20036;-82
2023/08/30 06:23:40;;;;;;;7.50;5.35;;;;;;;14.20;76.29;98035.97;5000120;28;20031;-81
2023/08/30 06:26:06;;;;;;;6.28;5.43;;;;;;;14.23;76.60;98045.34;4978678;28;20117;-81
2023/08/30 06:28:31;;;;;;;4.70;4.28;;;;;;;14.27;76.80;98043.66;4990989;28;20038;-83
2023/08/30 06:30:57;;;;;;;5.07;4.57;;;;;;;14.33;76.30;98029.09;4995436;28;20052;-82
2023/08/30 06:33:22;;;;;;;5.22;4.72;;;;;;;14.34;75.89;98030.69;4960495;28;20037;-83
2023/08/30 06:35:50;;;;;;;6.32;5.22;;;;;;;14.28;77.09;98042.59;4992724;28;20040;-82
2023/08/30 06:38:16;;;;;;;5.03;4.40;;;;;;;14.44;76.11;98030.53;5008769;28;20021;-82
2023/08/30 06:40:45;;;;;;;6.45;4.40;;;;;;;14.69;75.58;98040.06;4993258;28;20572;-82
2023/08/30 06:43:12;;;;;;;4.88;4.20;;;;;;;14.64;75.56;98030.19;4992805;28;20044;-82
2023/08/30 06:45:39;;;;;;;5.25;4.10;;;;;;;14.72;75.45;98034.88;4997352;28;20041;-82
2023/08/30 06:48:06;;;;;;;4.95;4.43;;;;;;;14.71;75.54;98022.56;5007488;28;20068;-82
2023/08/30 06:50:31;;;;;;;4.47;4.07;;;;;;;14.74;75.28;98040.75;4978150;28;20022;-82
2023/08/30 06:52:56;;;;;;;6.07;4.93;;;;;;;14.82;75.29;98036.63;4980532;28;20056;-82
2023/08/30 06:55:22;;;;;;;4.55;4.07;;;;;;;14.83;75.32;98040.91;4977074;28;20034;-82
2023/08/30 06:57:49;;;;;;;7.07;3.95;;;;;;;14.96;75.00;98026.72;5011367;28;20044;-83
2023/08/30 07:00:15;;;;;;;4.05;3.63;;;;;;;14.95;75.37;98022.41;4983627;28;20030;-82
2023/08/30 07:02:40;;;;;;;4.25;3.72;;;;;;;14.97;74.86;98030.97;4957918;28;20065;-82
2023/08/30 07:05:06;;;;;;;5.57;3.85;;;;;;;14.94;75.01;98013.56;4987686;28;20401;-82
2023/08/30 07:07:31;;;;;;;6.10;3.88;;;;;;;15.09;74.69;98025.13;4975018;28;20401;-82
2023/08/30 07:09:57;;;;;;;5.40;4.13;;;;;;;14.99;75.53;98020.72;5008082;28;20045;-82
2023/08/30 07:12:22;;;;;;;8.27;6.40;;;;;;;14.84;78.89;98007.56;4971843;28;20124;-82
2023/08/30 07:14:48;;;;;;;9.30;5.00;;;;;;;14.82;78.83;98013.25;4975629;28;20037;-82
2023/08/30 07:17:13;;;;;;;3.95;3.50;;;;;;;15.07;76.11;98008.50;4976652;28;20052;-82
2023/08/30 07:19:39;;;;;;;11.70;5.40;;;;;;;15.16;78.52;98009.41;4975618;28;20044;-82
2023/08/30 07:22:04;;;;;;;10.70;6.80;;;;;;;15.15;78.64;98021.25;4987138;28;20732;-82
2023/08/30 07:24:30;;;;;;;6.35;5.53;;;;;;;15.21;77.86;97999.34;4977605;28;20142;-82
2023/08/30 07:26:55;;;;;;;7.80;6.35;;;;;;;15.22;77.15;98000.16;5006459;28;20393;-82
2023/08/30 07:29:20;;;;;;;7.53;6.57;;;;;;;15.19;78.28;98001.53;5004843;28;22372;-82
2023/08/30 07:31:46;;;;;;;10.32;6.63;;;;;;;15.39;77.81;98005.72;4987687;28;20055;-82
2023/08/30 07:34:12;;;;;;;6.20;5.57;;;;;;;15.39;76.50;97989.56;4972083;28;20035;-82
2023/08/30 07:36:37;;;;;;;9.15;6.47;;;;;;;15.06;79.68;97996.16;4976875;28;20662;-81
2023/08/30 07:39:03;;;;;;;7.28;4.82;;;;;;;15.25;76.70;97986.88;4959183;28;20026;-82
2023/08/30 07:41:28;;;;;;;9.55;6.07;;;;;;;15.35;78.46;98000.16;4968971;28;20037;-82
2023/08/30 07:43:54;;;;;;;5.78;4.18;;;;;;;15.69;74.62;97995.16;5008135;28;20406;-82
2023/08/30 07:46:19;;;;;;;5.93;4.22;;;;;;;15.83;74.25;98013.16;4974944;28;20037;-82
2023/08/30 07:48:45;;;;;;;6.60;4.20;;;;;;;15.75;74.27;97993.94;4988482;28;20031;-81
2023/08/30 07:51:10;;;;;;;6.15;4.28;;;;;;;15.77;74.90;98006.31;5007623;28;20026;-81
2023/08/30 07:53:35;;;;;;;10.40;3.83;;;;;;;15.82;74.58;98015.03;5001790;28;20142;-81
2023/08/30 07:56:01;;;;;;;9.73;5.72;;;;;;;15.73;75.50;98000.72;4966644;28;20406;-82
2023/08/30 07:58:26;;;;;;;6.93;5.03;;;;;;;15.84;75.88;98012.84;4966551;28;20124;-82
2023/08/30 08:00:52;;;;;;;5.90;4.07;;;;;;;15.91;74.67;98005.16;4991487;28;20053;-82
2023/08/30 08:03:18;;;;;;;5.47;4.15;;;;;;;16.01;74.10;98001.47;5008081;28;20382;-81
2023/08/30 08:05:43;;;;;;;4.57;3.83;;;;;;;15.93;75.02;97989.50;4976636;28;20030;-82
2023/08/30 08:08:10;;;;;;;4.75;4.18;;;;;;;16.08;73.89;97994.53;4984244;28;20084;-82
2023/08/30 08:10:36;;;;;;;4.15;3.78;;;;;;;16.01;74.56;97998.75;4986050;28;20482;-82
2023/08/30 08:13:06;;;;;;;5.15;3.90;;;;;;;16.01;74.40;97988.78;4993054;28;20049;-83
2023/08/30 08:15:32;;;;;;;4.75;3.83;;;;;;;16.06;74.43;97982.47;4977546;28;20026;-82
2023/08/30 08:17:57;;;;;;;6.75;4.75;;;;;;;15.98;75.71;97977.81;4990541;28;20457;-82
2023/08/30 08:20:23;;;;;;;5.93;4.82;;;;;;;16.11;75.79;97991.25;4978406;28;20038;-81
2023/08/30 08:22:48;;;;;;;9.98;4.88;;;;;;;16.00;77.23;97981.00;4992897;28;20113;-82
2023/08/30 08:25:14;;;;;;;4.65;3.50;;;;;;;16.07;75.54;97990.28;4998415;28;21953;-82
2023/08/30 08:27:39;;;;;;;4.13;3.55;;;;;;;16.24;74.22;97986.91;5007380;28;20033;-82
2023/08/30 08:30:05;;;;;;;6.20;3.88;;;;;;;16.28;74.78;97977.91;4991142;28;20035;-81
2023/08/30 08:32:31;;;;;;;4.40;4.07;;;;;;;16.33;74.16;97987.75;4988134;28;20112;-82
2023/08/30 08:34:58;;;;;;;7.25;5.32;;;;;;;16.21;75.54;97979.44;4980741;28;20038;-81
2023/08/30 08:37:23;;;;;;;4.35;3.75;;;;;;;16.27;74.66;97972.84;5007185;28;20092;-82
2023/08/30 08:39:51;;;;;;;5.38;4.38;;;;;;;16.35;75.33;97986.38;4991125;28;20472;-82
2023/08/30 08:42:21;;;;;;;3.83;3.40;;;;;;;16.47;74.38;97969.63;5005825;28;20060;-82
2023/08/30 08:44:49;;;;;;;5.68;4.13;;;;;;;16.55;74.90;97976.22;5007921;28;20025;-82
2023/08/30 08:47:17;;;;;;;6.70;5.53;;;;;;;16.43;77.65;97972.16;4992329;28;20037;-82
2023/08/30 08:49:43;;;;;;;5.80;5.20;;;;;;;16.52;74.61;97974.13;5009963;28;20028;-81
2023/08/30 08:52:09;;;;;;;9.23;7.07;;;;;;;16.52;75.58;97974.91;5004050;28;20065;-82
2023/08/30 08:54:38;;;;;;;10.52;6.80;;;;;;;16.57;75.19;97982.09;4992171;28;20026;-81
2023/08/30 08:57:07;;;;;;;7.40;4.70;;;;;;;16.61;74.71;97969.59;5006058;28;20685;-82
2023/08/30 08:59:32;;;;;;;7.55;5.38;;;;;;;16.65;74.61;97962.47;4993894;28;20151;-81
2023/08/30 09:02:00;;;;;;;8.60;6.05;;;;;;;16.71;74.77;97972.81;5010301;28;20030;-82
2023/08/30 09:04:26;;;;;;;8.50;6.13;;;;;;;16.74;73.37;97968.69;4984395;28;20038;-81
2023/08/30 09:06:51;;;;;;;9.30;7.10;;;;;;;16.76;72.97;97971.88;4984207;28;20401;-81
2023/08/30 09:09:17;;;;;;;10.65;8.05;;;;;;;16.75;73.99;97967.63;4989875;28;20033;-81
2023/08/30 09:11:43;;;;;;;9.50;7.07;;;;;;;16.84;72.59;97974.63;5004344;28;20544;-81
2023/08/30 09:14:08;;;;;;;12.70;8.68;;;;;;;16.78;73.55;97969.66;4972812;28;20161;-82
2023/08/30 09:16:34;;;;;;;9.98;8.18;;;;;;;16.77;72.03;97947.34;5003900;28;20034;-82
2023/08/30 09:19:01;;;;;;;11.27;7.72;;;;;;;16.98;72.08;97977.22;4953064;28;20061;-82
2023/08/30 09:21:27;;;;;;;12.15;7.55;;;;;;;16.87;72.37;97957.84;4988779;28;20036;-82
2023/08/30 09:24:03;;;;;;;10.73;7.63;;;;;;;16.98;72.32;97964.53;4992105;28;20030;-81
2023/08/30 09:26:33;;;;;;;8.20;7.35;;;;;;;17.18;71.91;97979.38;4972336;28;20393;-82
2023/08/30 09:29:06;;;;;;;8.50;7.13;;;;;;;17.14;71.24;97960.34;4967057;28;20125;-82
2023/08/30 09:31:37;;;;;;;9.88;7.35;;;;;;;17.17;71.94;97961.59;4977235;28;20038;-82
2023/08/30 09:34:03;;;;;;;10.48;7.90;;;;;;;17.25;71.76;97961.59;4992299;28;20029;-82
2023/08/30 09:36:36;;;;;;;9.63;7.60;;;;;;;17.40;71.39;97971.19;4990575;28;20456;-82
2023/08/30 09:39:09;;;;;;;11.18;7.93;;;;;;;17.44;71.67;97974.84;4977168;28;20025;-82
2023/08/30 09:41:35;;;;;;;13.40;8.70;;;;;;;17.52;71.54;97966.00;4986045;28;20690;-82
2023/08/30 09:44:06;;;;;;;12.85;9.60;;;;;;;17.59;71.18;97977.13;4972818;28;20036;-82
2023/08/30 09:46:32;;;;;;;9.50;8.10;;;;;;;17.62;70.83;97965.72;4990704;28;20037;-82
2023/08/30 09:48:57;;;;;;;12.13;9.00;;;;;;;17.75;70.59;97970.19;4958229;28;20026;-82
2023/08/30 09:51:26;;;;;;;11.88;8.82;;;;;;;17.74;70.57;97967.78;4985077;28;20062;-82
2023/08/30 09:53:57;;;;;;;11.55;8.88;;;;;;;17.61;70.36;97955.22;4999432;28;20092;-82
2023/08/30 09:56:23;;;;;;;12.43;9.45;;;;;;;17.70;70.10;97962.22;4979115;28;20037;-82
2023/08/30 09:58:49;;;;;;;12.55;9.70;;;;;;;17.75;69.88;97942.38;5008033;28;20033;-82
2023/08/30 10:01:14;;;;;;;12.65;9.63;;;;;;;17.85;69.83;97940.16;4960777;28;20026;-82
2023/08/30 10:03:40;;;;;;;16.45;11.30;;;;;;;17.78;70.71;97952.53;4987413;28;20540;-82
2023/08/30 10:06:06;;;;;;;15.73;9.63;;;;;;;17.94;69.41;97946.38;4992330;28;20068;-82
2023/08/30 10:08:34;;;;;;;11.95;10.48;;;;;;;17.99;68.89;97937.31;4971741;28;20030;-81
2023/08/30 10:11:00;;;;;;;12.95;10.18;;;;;;;18.02;69.58;97952.09;4996021;28;20108;-82
2023/08/30 10:13:26;;;;;;;11.48;10.30;;;;;;;18.03;69.99;97948.25;4973016;28;20125;-82
2023/08/30 10:15:55;;;;;;;10.60;9.50;;;;;;;18.09;70.22;97947.78;5011533;28;20033;-82
2023/08/30 10:18:22;;;;;;;10.60;8.43;;;;;;;17.93;69.33;97911.59;4990897;28;20045;-82
2023/08/30 10:20:49;;;;;;;14.10;9.82;;;;;;;18.04;70.81;97941.75;4994028;28;20409;-82
2023/08/30 10:23:17;;;;;;;15.00;9.18;;;;;;;17.98;69.62;97931.09;4993190;28;20087;-82
2023/08/30 10:25:44;;;;;;;17.30;10.88;;;;;;;17.95;70.15;97933.66;4995668;28;20481;-82
2023/08/30 10:28:11;;;;;;;10.45;9.07;;;;;;;17.97;69.67;97918.72;5005660;28;20033;-83
2023/08/30 10:30:36;;;;;;;12.45;9.45;;;;;;;18.15;69.76;97916.78;4979503;28;20562;-82
2023/08/30 10:33:03;;;;;;;9.63;8.55;;;;;;;18.13;69.80;97908.22;4973096;28;20049;-83
2023/08/30 10:35:29;;;;;;;12.65;8.40;;;;;;;18.19;69.78;97919.66;4992905;28;20037;-82
2023/08/30 10:37:59;;;;;;;9.40;8.25;;;;;;;18.32;69.12;97918.69;4977519;28;20023;-82
2023/08/30 10:40:24;;;;;;;12.40;10.93;;;;;;;18.36;68.43;97916.91;5008942;28;20029;-82
2023/08/30 10:43:03;;;;;;;11.05;9.25;;;;;;;18.66;68.22;97913.22;5009829;28;20048;-83
2023/08/30 10:45:30;;;;;;;10.90;8.60;;;;;;;18.87;67.42;97927.59;4988303;28;20037;-82
2023/08/30 10:47:56;;;;;;;10.05;8.77;;;;;;;18.98;66.93;97919.94;4993981;28;20038;-82
2023/08/30 10:50:29;;;;;;;10.73;9.55;;;;;;;18.98;67.33;97928.06;4978637;28;20041;-82
2023/08/30 10:52:56;;;;;;;12.00;8.82;;;;;;;19.12;66.83;97918.59;4997611;28;20057;-82
2023/08/30 10:55:22;;;;;;;11.40;9.32;;;;;;;19.27;66.28;97920.72;4989345;28;20111;-82
2023/08/30 10:58:02;;;;;;;10.40;8.50;;;;;;;19.24;66.17;97913.25;5010524;28;20026;-83
2023/08/30 11:00:29;;;;;;;13.88;10.27;;;;;;;19.25;67.04;97914.84;4993064;28;20021;-82
2023/08/30 11:02:55;;;;;;;12.77;9.82;;;;;;;19.34;66.78;97904.81;4978630;28;20034;-82
2023/08/30 11:05:23;;;;;;;10.30;7.30;;;;;;;19.22;66.50;97895.78;4994558;28;20430;-82
2023/08/30 11:07:50;;;;;;;11.23;9.30;;;;;;;19.11;66.71;97895.34;5007699;28;20570;-83
2023/08/30 11:10:16;;;;;;;8.48;7.68;;;;;;;19.13;66.58;97909.34;4971235;28;20041;-83
2023/08/30 11:12:43;;;;;;;8.77;7.30;;;;;;;19.05;66.60;97896.66;4992670;28;20029;-83
2023/08/30 11:15:10;;;;;;;8.93;8.02;;;;;;;18.85;66.95;97899.31;4992523;28;20110;-82
2023/08/30 11:17:35;;;;;;;12.27;8.18;;;;;;;18.80;65.96;97892.19;4990238;28;20038;-82
2023/08/30 11:20:07;;;;;;;8.15;7.28;;;;;;;19.02;65.37;97899.22;4992480;28;20375;-83
2023/08/30 11:22:36;;;;;;;8.80;7.82;;;;;;;18.72;65.85;97882.16;4988761;28;20030;-82
2023/08/30 11:25:02;;;;;;;9.65;7.72;;;;;;;18.61;65.01;97884.44;4991781;28;20033;-81
2023/08/30 11:27:27;;;;;;;12.05;7.07;;;;;;;18.62;65.26;97896.84;4980801;28;21005;-82